Time;durP1;ratioP1;P1;durP2;ratioP2;P2;SDS_P1;SDS_P2;PMS_P1;PMS_P2;Temp;Humidity;BMP_temperature;BMP_pressure;BME280_temperature;BME280_humidity;BME280_pressure;Samples;Min_cycle;Max_cycle;Signal;HPM_P1;HPM_P2
2023/04/05 00:00:17;;;;;;;9.02;5.75;;;3.70;99.90;;;;;;2085772;28;20036;-78
2023/04/05 00:01:19;;;;;;;7.72;5.60;;;3.80;99.90;;;;;;2082013;28;20048;-78
2023/04/05 00:02:20;;;;;;;9.27;6.00;;;3.80;99.90;;;;;;2083505;28;20040;-79
2023/04/05 00:03:20;;;;;;;8.07;5.63;;;3.80;99.90;;;;;;2084690;28;20028;-78
2023/04/05 00:04:22;;;;;;;8.73;5.40;;;3.80;99.90;;;;;;2087716;28;20021;-79
2023/04/05 00:05:29;;;;;;;7.80;5.50;;;3.80;99.90;;;;;;2087499;28;20029;-78
2023/04/05 00:06:30;;;;;;;7.85;5.30;;;3.80;99.90;;;;;;2076821;28;20028;-80
2023/04/05 00:07:33;;;;;;;9.15;5.72;;;3.80;99.90;;;;;;2079929;28;20029;-79
2023/04/05 00:08:33;;;;;;;8.45;5.85;;;3.80;99.90;;;;;;2086727;28;20124;-79
2023/04/05 00:09:35;;;;;;;7.95;5.30;;;3.80;99.90;;;;;;2081626;28;20033;-80
2023/04/05 00:10:36;;;;;;;8.75;5.65;;;3.80;99.90;;;;;;2071957;28;20552;-79
2023/04/05 00:11:36;;;;;;;7.22;5.40;;;3.70;99.90;;;;;;2076100;28;20067;-80
2023/04/05 00:12:37;;;;;;;9.48;5.50;;;3.80;99.90;;;;;;2084379;28;20336;-78
2023/04/05 00:13:38;;;;;;;8.65;6.03;;;3.70;99.90;;;;;;2075973;28;20359;-78
2023/04/05 00:14:38;;;;;;;10.15;5.60;;;3.70;99.90;;;;;;2075775;28;20033;-80
2023/04/05 00:15:39;;;;;;;8.90;5.57;;;3.70;99.90;;;;;;2084665;28;20036;-79
2023/04/05 00:16:41;;;;;;;8.20;5.63;;;3.70;99.90;;;;;;2083687;28;20056;-80
2023/04/05 00:17:42;;;;;;;8.60;5.70;;;3.70;99.90;;;;;;2081583;28;20109;-80
2023/04/05 00:18:48;;;;;;;7.97;5.68;;;3.70;99.90;;;;;;2081829;28;20608;-80
2023/04/05 00:19:55;;;;;;;8.90;5.80;;;3.70;99.90;;;;;;2081528;28;20322;-77
2023/04/05 00:20:56;;;;;;;7.13;5.35;;;3.70;99.90;;;;;;2081025;28;20087;-69
2023/04/05 00:21:57;;;;;;;7.28;4.93;;;3.70;99.90;;;;;;2083205;28;20128;-76
2023/04/05 00:22:58;;;;;;;7.95;5.35;;;3.60;99.90;;;;;;2082119;28;20040;-70
2023/04/05 00:23:59;;;;;;;9.57;5.60;;;3.60;99.90;;;;;;2080629;28;20025;-75
2023/04/05 00:25:00;;;;;;;9.32;5.28;;;3.60;99.90;;;;;;2079257;28;20041;-75
2023/04/05 00:26:01;;;;;;;8.32;5.15;;;3.60;99.90;;;;;;2084838;28;22960;-75
2023/04/05 00:27:01;;;;;;;7.53;5.20;;;3.60;99.90;;;;;;2075575;28;20032;-76
2023/04/05 00:28:02;;;;;;;7.90;5.25;;;3.60;99.90;;;;;;2075769;28;20112;-74
2023/04/05 00:29:03;;;;;;;7.45;5.10;;;3.60;99.90;;;;;;2088104;28;20062;-75
2023/04/05 00:30:04;;;;;;;6.78;4.70;;;3.50;99.90;;;;;;2085586;28;20417;-75
2023/04/05 00:31:05;;;;;;;7.95;5.22;;;3.60;99.90;;;;;;2075877;28;20040;-74
2023/04/05 00:32:05;;;;;;;8.55;4.97;;;3.60;99.90;;;;;;2065150;28;20076;-75
2023/04/05 00:33:06;;;;;;;7.90;5.10;;;3.50;99.90;;;;;;2070200;28;20021;-77
2023/04/05 00:34:09;;;;;;;6.60;4.97;;;3.50;99.90;;;;;;2084844;28;20485;-76
2023/04/05 00:35:09;;;;;;;7.32;4.72;;;3.50;99.90;;;;;;2084738;28;20034;-76
2023/04/05 00:36:18;;;;;;;6.13;4.82;;;3.50;99.90;;;;;;2084370;28;20131;-76
2023/04/05 00:37:20;;;;;;;7.78;4.78;;;3.40;99.90;;;;;;2077209;28;20025;-76
2023/04/05 00:38:20;;;;;;;6.72;4.80;;;3.40;99.90;;;;;;2079012;28;20017;-76
2023/04/05 00:39:21;;;;;;;7.30;4.70;;;3.50;99.90;;;;;;2076295;28;20053;-77
2023/04/05 00:40:22;;;;;;;7.47;4.72;;;3.50;99.90;;;;;;2068374;28;20033;-76
2023/04/05 00:41:23;;;;;;;6.57;4.47;;;3.50;99.90;;;;;;2065848;28;20038;-77
2023/04/05 00:42:23;;;;;;;6.47;4.70;;;3.40;99.90;;;;;;2077509;28;20029;-77
2023/04/05 00:43:24;;;;;;;6.38;4.70;;;3.50;99.90;;;;;;2088678;28;20481;-75
2023/04/05 00:44:25;;;;;;;7.00;5.00;;;3.40;99.90;;;;;;2075939;28;20481;-75
2023/04/05 00:45:26;;;;;;;8.18;4.97;;;3.40;99.90;;;;;;2075489;28;20111;-75
2023/04/05 00:46:27;;;;;;;7.57;4.55;;;3.40;99.90;;;;;;2083264;28;20469;-75
2023/04/05 00:47:27;;;;;;;7.25;4.93;;;3.40;99.90;;;;;;2084587;28;20515;-74
2023/04/05 00:48:28;;;;;;;6.78;4.60;;;3.40;99.90;;;;;;2085698;28;20574;-76
2023/04/05 00:49:30;;;;;;;6.78;4.65;;;3.40;99.90;;;;;;2076288;28;20146;-75
2023/04/05 00:50:32;;;;;;;7.50;4.60;;;3.40;99.90;;;;;;2076685;28;20516;-75
2023/04/05 00:51:32;;;;;;;6.57;4.88;;;3.40;99.90;;;;;;2085012;28;20496;-76
2023/04/05 00:52:36;;;;;;;8.40;5.60;;;3.40;99.90;;;;;;2072146;28;20025;-76
2023/04/05 00:53:38;;;;;;;7.38;5.68;;;3.40;99.90;;;;;;2070732;28;20122;-76
2023/04/05 00:54:39;;;;;;;8.07;6.03;;;3.40;99.90;;;;;;2075936;28;20091;-75
2023/04/05 00:55:40;;;;;;;8.80;6.32;;;3.30;99.90;;;;;;2071664;28;20152;-74
2023/04/05 00:56:41;;;;;;;11.40;6.40;;;3.30;99.90;;;;;;2083745;28;20028;-75
2023/04/05 00:57:44;;;;;;;9.55;6.18;;;3.40;99.90;;;;;;2085313;28;20151;-76
2023/04/05 00:58:44;;;;;;;10.50;6.72;;;3.40;99.90;;;;;;2083824;28;20032;-76
2023/04/05 00:59:45;;;;;;;9.65;6.43;;;3.40;99.90;;;;;;2086251;28;20107;-76
2023/04/05 01:01:12;;;;;;;9.60;6.47;;;3.30;99.90;;;;;;2080083;28;20045;-75
2023/04/05 01:02:23;;;;;;;10.00;6.80;;;3.40;99.90;;;;;;2079294;28;20040;-74
2023/04/05 01:03:27;;;;;;;10.70;7.13;;;3.30;99.90;;;;;;2086934;28;20039;-74
2023/04/05 01:04:31;;;;;;;11.10;7.15;;;3.30;99.90;;;;;;2086118;28;20028;-75
2023/04/05 01:05:52;;;;;;;9.80;6.63;;;3.30;99.90;;;;;;2081454;28;20032;-76
2023/04/05 01:07:04;;;;;;;11.43;7.30;;;3.30;99.90;;;;;;2078665;28;20535;-75
2023/04/05 01:08:11;;;;;;;10.15;6.85;;;3.30;99.90;;;;;;2073026;28;20075;-76
2023/04/05 01:09:52;;;;;;;10.82;7.70;;;3.20;99.90;;;;;;2090668;28;20040;-77
2023/04/05 01:10:56;;;;;;;12.73;7.55;;;3.20;99.90;;;;;;2075410;28;20990;-76
2023/04/05 01:12:00;;;;;;;15.77;7.63;;;3.20;99.90;;;;;;2075144;28;20045;-77
2023/04/05 01:13:01;;;;;;;10.43;7.20;;;3.20;99.90;;;;;;2084285;28;20025;-76
2023/04/05 01:14:04;;;;;;;11.45;7.25;;;3.20;99.90;;;;;;2078318;28;20080;-76
2023/04/05 01:15:05;;;;;;;11.25;7.20;;;3.20;99.90;;;;;;2073153;28;20105;-76
2023/04/05 01:16:06;;;;;;;11.98;7.22;;;3.20;99.90;;;;;;2084647;28;20036;-76
2023/04/05 01:17:08;;;;;;;10.30;7.00;;;3.20;99.90;;;;;;2088525;28;20475;-76
2023/04/05 01:18:10;;;;;;;11.63;7.50;;;3.20;99.90;;;;;;2079847;28;20566;-76
2023/04/05 01:19:12;;;;;;;12.07;7.60;;;3.20;99.90;;;;;;2077815;28;20174;-76
2023/04/05 01:20:12;;;;;;;11.73;7.28;;;3.20;99.90;;;;;;2077954;28;20493;-76
2023/04/05 01:21:33;;;;;;;9.85;6.82;;;3.20;99.90;;;;;;2078122;28;20685;-76
2023/04/05 01:22:59;;;;;;;11.20;7.10;;;3.20;99.90;;;;;;2082761;28;20049;-76
2023/04/05 01:24:24;;;;;;;12.60;6.75;;;3.10;99.90;;;;;;2080534;28;20086;-76
2023/04/05 01:25:52;;;;;;;11.23;6.80;;;3.20;99.90;;;;;;2079052;28;20032;-76
2023/04/05 01:27:09;;;;;;;12.15;6.63;;;3.20;99.90;;;;;;2080874;28;20025;-76
2023/04/05 01:28:32;;;;;;;10.88;6.55;;;3.20;99.90;;;;;;2085500;28;20552;-76
2023/04/05 01:29:41;;;;;;;10.05;6.32;;;3.10;99.90;;;;;;2086778;28;20183;-75
2023/04/05 01:30:47;;;;;;;9.82;6.00;;;3.10;99.90;;;;;;2083811;28;20075;-76
2023/04/05 01:32:05;;;;;;;10.57;6.57;;;3.10;99.90;;;;;;2088710;28;20428;-76
2023/04/05 01:33:30;;;;;;;12.55;6.43;;;3.10;99.90;;;;;;2083669;28;20056;-76
2023/04/05 01:34:52;;;;;;;8.70;6.07;;;3.10;99.90;;;;;;2094889;28;20029;-76
2023/04/05 01:36:18;;;;;;;11.85;6.45;;;3.10;99.90;;;;;;2077395;28;20126;-76
2023/04/05 01:37:25;;;;;;;10.65;6.15;;;3.10;99.90;;;;;;2083422;28;20160;-76
2023/04/05 01:38:28;;;;;;;9.05;6.10;;;3.10;99.90;;;;;;2075193;28;20030;-75
2023/04/05 01:39:29;;;;;;;9.00;5.97;;;3.10;99.90;;;;;;2082298;28;20102;-75
2023/04/05 01:40:32;;;;;;;9.10;6.10;;;3.10;99.90;;;;;;2069802;28;20029;-76
2023/04/05 01:41:33;;;;;;;10.10;6.57;;;3.10;99.90;;;;;;2075263;28;20689;-76
2023/04/05 01:42:35;;;;;;;8.70;6.03;;;3.10;99.90;;;;;;2087483;28;20108;-76
2023/04/05 01:43:35;;;;;;;8.75;5.93;;;3.10;99.90;;;;;;2078930;28;20029;-76
2023/04/05 01:44:36;;;;;;;8.00;5.75;;;3.10;99.90;;;;;;2073521;28;20120;-75
2023/04/05 01:45:36;;;;;;;11.07;6.47;;;3.10;99.90;;;;;;2085634;28;20059;-76
2023/04/05 01:46:38;;;;;;;8.82;5.82;;;3.10;99.90;;;;;;2096877;28;20024;-76
2023/04/05 01:47:38;;;;;;;9.85;5.75;;;3.10;99.90;;;;;;2085348;28;20083;-77
2023/04/05 01:48:39;;;;;;;9.93;5.97;;;3.10;99.90;;;;;;2080799;28;20483;-76
2023/04/05 01:49:39;;;;;;;8.82;6.28;;;3.10;99.90;;;;;;2080650;28;20076;-76
2023/04/05 01:50:41;;;;;;;9.48;6.07;;;3.10;99.90;;;;;;2079542;28;20030;-76
2023/04/05 01:51:41;;;;;;;8.50;6.20;;;3.10;99.90;;;;;;2075776;28;20147;-76
2023/04/05 01:52:42;;;;;;;9.88;6.32;;;3.10;99.90;;;;;;2070612;28;20116;-76
2023/04/05 01:53:42;;;;;;;10.52;6.60;;;3.10;99.90;;;;;;2081848;28;20029;-75
2023/04/05 01:54:43;;;;;;;13.05;7.47;;;3.10;99.90;;;;;;2082539;28;20100;-76
2023/04/05 01:55:44;;;;;;;11.95;7.43;;;3.10;99.90;;;;;;2084785;28;20136;-75
2023/04/05 01:56:45;;;;;;;13.25;7.80;;;3.10;99.90;;;;;;2078897;28;20480;-76
2023/04/05 01:57:46;;;;;;;12.05;7.60;;;3.10;99.90;;;;;;2073511;28;20026;-76
2023/04/05 01:58:46;;;;;;;13.45;7.85;;;3.00;99.90;;;;;;2073605;28;20037;-76
2023/04/05 01:59:47;;;;;;;13.15;7.65;;;3.10;99.90;;;;;;2075196;28;20056;-76
2023/04/05 02:00:47;;;;;;;12.88;7.63;;;3.10;99.90;;;;;;2069287;28;20026;-76
2023/04/05 02:01:48;;;;;;;13.10;7.60;;;3.10;99.90;;;;;;2073485;28;20029;-75
2023/04/05 02:02:49;;;;;;;12.50;7.28;;;3.10;99.90;;;;;;2069140;28;20109;-75
2023/04/05 02:03:49;;;;;;;12.50;7.38;;;3.10;99.90;;;;;;2083772;28;20558;-76
2023/04/05 02:04:50;;;;;;;12.00;7.07;;;3.00;99.90;;;;;;2086444;28;20090;-75
2023/04/05 02:05:51;;;;;;;12.85;6.88;;;3.00;99.90;;;;;;2081954;28;20496;-76
2023/04/05 02:06:51;;;;;;;12.00;7.00;;;3.10;99.90;;;;;;2081866;28;20029;-75
2023/04/05 02:07:52;;;;;;;11.77;7.05;;;3.00;99.90;;;;;;2077146;28;20408;-75
2023/04/05 02:08:52;;;;;;;10.02;6.60;;;3.10;99.90;;;;;;2074601;28;20303;-75
2023/04/05 02:09:53;;;;;;;10.75;6.38;;;3.10;99.90;;;;;;2067807;28;20508;-76
2023/04/05 02:10:53;;;;;;;9.10;6.15;;;3.10;99.90;;;;;;2082498;28;20017;-76
2023/04/05 02:11:55;;;;;;;9.18;6.45;;;3.00;99.90;;;;;;2075391;28;20496;-76
2023/04/05 02:12:56;;;;;;;9.95;6.30;;;3.10;99.90;;;;;;2075432;28;20025;-75
2023/04/05 02:13:56;;;;;;;11.80;6.50;;;3.10;99.90;;;;;;2081135;28;20369;-76
2023/04/05 02:14:58;;;;;;;9.10;6.05;;;3.10;99.90;;;;;;2073812;28;20026;-76
2023/04/05 02:15:58;;;;;;;9.45;6.38;;;3.10;99.90;;;;;;2065517;28;20041;-75
2023/04/05 02:17:01;;;;;;;8.88;6.15;;;3.10;99.90;;;;;;2067351;28;20084;-76
2023/04/05 02:18:02;;;;;;;9.73;6.18;;;3.10;99.90;;;;;;2063892;28;20018;-76
2023/04/05 02:19:04;;;;;;;9.45;6.20;;;3.00;99.90;;;;;;2067788;28;20462;-75
2023/04/05 02:20:07;;;;;;;12.57;7.20;;;3.10;99.90;;;;;;2073607;28;20036;-75
2023/04/05 02:21:09;;;;;;;20.70;10.00;;;3.10;99.90;;;;;;2073852;28;20034;-75
2023/04/05 02:22:11;;;;;;;23.25;11.02;;;3.00;99.90;;;;;;2073540;28;20035;-74
2023/04/05 02:23:11;;;;;;;23.75;10.88;;;3.10;99.90;;;;;;2075592;28;20033;-76
2023/04/05 02:24:12;;;;;;;24.00;11.00;;;3.10;99.90;;;;;;2081800;28;20300;-76
2023/04/05 02:25:12;;;;;;;21.92;10.32;;;3.10;99.90;;;;;;2078882;28;20040;-76
2023/04/05 02:26:13;;;;;;;21.73;9.07;;;3.00;99.90;;;;;;2073424;28;20033;-75
2023/04/05 02:27:14;;;;;;;17.40;8.57;;;3.10;99.90;;;;;;2075901;28;20060;-76
2023/04/05 02:28:14;;;;;;;12.57;7.55;;;3.10;99.90;;;;;;2075097;28;20174;-76
2023/04/05 02:29:15;;;;;;;12.02;7.22;;;3.00;99.90;;;;;;2074612;28;20022;-76
2023/04/05 02:30:16;;;;;;;11.80;7.07;;;3.00;99.90;;;;;;2082517;28;20581;-76
2023/04/05 02:31:16;;;;;;;11.23;6.85;;;3.00;99.90;;;;;;2069896;28;20386;-78
2023/04/05 02:32:17;;;;;;;10.07;6.13;;;3.00;99.90;;;;;;2075495;28;20499;-77
2023/04/05 02:33:18;;;;;;;10.38;6.75;;;2.90;99.90;;;;;;2073852;28;20046;-76
2023/04/05 02:34:18;;;;;;;12.25;6.85;;;2.90;99.90;;;;;;2062027;28;20057;-76
2023/04/05 02:35:20;;;;;;;15.02;7.15;;;3.00;99.90;;;;;;2061926;28;20022;-76
2023/04/05 02:36:21;;;;;;;12.15;6.80;;;3.00;99.90;;;;;;2067319;28;20126;-76
2023/04/05 02:37:21;;;;;;;13.00;7.03;;;3.00;99.90;;;;;;2065414;28;20498;-76
2023/04/05 02:38:22;;;;;;;11.02;6.40;;;2.90;99.90;;;;;;2068719;28;20595;-76
2023/04/05 02:39:22;;;;;;;11.18;6.22;;;3.00;99.90;;;;;;2069514;28;20033;-76
2023/04/05 02:40:24;;;;;;;13.38;6.47;;;2.90;99.90;;;;;;2067221;28;20038;-76
2023/04/05 02:41:24;;;;;;;16.42;7.75;;;3.00;99.90;;;;;;2073534;28;20044;-76
2023/04/05 02:42:25;;;;;;;13.57;7.30;;;3.00;99.90;;;;;;2085758;28;20108;-76
2023/04/05 02:43:26;;;;;;;12.60;7.00;;;3.00;99.90;;;;;;2073963;28;20492;-76
2023/04/05 02:44:27;;;;;;;12.00;6.72;;;3.00;99.90;;;;;;2079385;28;20416;-76
2023/04/05 02:45:27;;;;;;;10.90;6.50;;;2.90;99.90;;;;;;2068932;28;20592;-76
2023/04/05 02:46:30;;;;;;;11.18;6.70;;;2.90;99.90;;;;;;2073338;28;20113;-77
2023/04/05 02:47:32;;;;;;;11.80;6.32;;;2.90;99.90;;;;;;2065584;28;20635;-77
2023/04/05 02:48:34;;;;;;;10.70;7.15;;;2.90;99.90;;;;;;2065332;28;20033;-76
2023/04/05 02:49:36;;;;;;;9.45;6.43;;;2.90;99.90;;;;;;2065991;28;20034;-76
2023/04/05 02:50:39;;;;;;;10.90;6.72;;;2.90;99.90;;;;;;2068922;28;20029;-76
2023/04/05 02:51:40;;;;;;;10.38;6.65;;;2.90;99.90;;;;;;2071158;28;20120;-77
2023/04/05 02:52:43;;;;;;;9.43;6.20;;;2.90;99.90;;;;;;2070594;28;20639;-76
2023/04/05 02:53:44;;;;;;;9.95;6.40;;;2.90;99.90;;;;;;2074470;28;20510;-77
2023/04/05 02:54:48;;;;;;;7.70;5.80;;;2.90;99.90;;;;;;2073201;28;20119;-76
2023/04/05 02:55:53;;;;;;;9.77;6.22;;;2.90;99.90;;;;;;2072864;28;20021;-74
2023/04/05 02:56:56;;;;;;;9.48;6.05;;;2.90;99.90;;;;;;2074303;28;20026;-75
2023/04/05 02:58:01;;;;;;;8.88;5.80;;;2.90;99.90;;;;;;2070416;28;20471;-75
2023/04/05 02:59:09;;;;;;;8.88;6.13;;;2.90;99.90;;;;;;2063917;28;20060;-76
2023/04/05 03:00:11;;;;;;;8.70;5.68;;;2.90;99.90;;;;;;2065146;28;20083;-76
2023/04/05 03:01:12;;;;;;;9.00;6.18;;;2.90;99.90;;;;;;2066614;28;20057;-75
2023/04/05 03:02:13;;;;;;;8.82;6.32;;;2.90;99.90;;;;;;2081765;28;20045;-75
2023/04/05 03:03:14;;;;;;;11.75;7.13;;;2.90;99.90;;;;;;2067235;28;20567;-75
2023/04/05 03:04:17;;;;;;;11.60;7.05;;;2.90;99.90;;;;;;2061926;28;20058;-75
2023/04/05 03:05:19;;;;;;;11.40;7.28;;;2.90;99.90;;;;;;2065560;28;20029;-76
2023/04/05 03:06:23;;;;;;;11.48;6.72;;;2.90;99.90;;;;;;2073386;28;20053;-76
2023/04/05 03:07:25;;;;;;;11.10;7.15;;;2.90;99.90;;;;;;2065391;28;20084;-72
2023/04/05 03:08:27;;;;;;;10.38;6.82;;;2.90;99.90;;;;;;2068990;28;20124;-73
2023/04/05 03:09:37;;;;;;;9.48;6.70;;;2.90;99.90;;;;;;2063496;28;20045;-74
2023/04/05 03:10:43;;;;;;;11.10;6.82;;;2.90;99.90;;;;;;2072744;28;20038;-74
2023/04/05 03:11:48;;;;;;;9.25;6.47;;;2.90;99.90;;;;;;2064114;28;20588;-74
2023/04/05 03:12:50;;;;;;;10.73;6.65;;;2.90;99.90;;;;;;2068622;28;20029;-73
2023/04/05 03:13:55;;;;;;;9.55;6.50;;;2.90;99.90;;;;;;2064394;28;20022;-74
2023/04/05 03:15:07;;;;;;;9.57;6.53;;;2.90;99.90;;;;;;2069519;28;20491;-73
2023/04/05 03:16:12;;;;;;;9.75;6.63;;;2.90;99.90;;;;;;2067913;28;20496;-73
2023/04/05 03:17:15;;;;;;;8.65;6.35;;;2.90;99.90;;;;;;2071281;28;20520;-70
2023/04/05 03:18:20;;;;;;;8.40;6.10;;;2.90;99.90;;;;;;2071411;28;20040;-69
2023/04/05 03:19:25;;;;;;;9.95;6.30;;;2.90;99.90;;;;;;2070622;28;20064;-70
2023/04/05 03:20:29;;;;;;;10.45;6.40;;;2.90;99.90;;;;;;2067255;28;20025;-69
2023/04/05 03:21:33;;;;;;;10.30;6.28;;;2.90;99.90;;;;;;2067266;28;20029;-69
2023/04/05 03:22:41;;;;;;;9.48;6.32;;;2.90;99.90;;;;;;2067704;28;20428;-68
2023/04/05 03:23:42;;;;;;;9.25;6.18;;;2.90;99.90;;;;;;2076766;28;20033;-70
2023/04/05 03:24:45;;;;;;;9.52;6.28;;;2.90;99.90;;;;;;2068294;28;20028;-68
2023/04/05 03:25:48;;;;;;;9.05;5.88;;;2.90;99.90;;;;;;2074535;28;20500;-68
2023/04/05 03:26:50;;;;;;;9.63;6.40;;;2.90;99.90;;;;;;2074818;28;20040;-69
2023/04/05 03:27:54;;;;;;;10.50;6.25;;;2.90;99.90;;;;;;2075275;28;20064;-68
2023/04/05 03:28:57;;;;;;;8.70;6.00;;;2.90;99.90;;;;;;2081915;28;20028;-68
2023/04/05 03:30:05;;;;;;;9.50;5.90;;;2.90;99.90;;;;;;2068013;28;20033;-69
2023/04/05 03:31:10;;;;;;;9.38;6.40;;;2.90;99.90;;;;;;2074390;28;20029;-69
2023/04/05 03:32:12;;;;;;;9.32;6.40;;;2.90;99.90;;;;;;2076577;28;20033;-69
2023/04/05 03:33:19;;;;;;;10.05;6.45;;;2.90;99.90;;;;;;2072447;28;20021;-70
2023/04/05 03:34:27;;;;;;;9.82;6.68;;;2.90;99.90;;;;;;2066878;28;20053;-69
2023/04/05 03:35:28;;;;;;;9.23;6.65;;;2.90;99.90;;;;;;2075479;28;20036;-67
2023/04/05 03:36:29;;;;;;;9.15;6.50;;;2.90;99.90;;;;;;2074608;28;20261;-68
2023/04/05 03:37:30;;;;;;;10.25;6.32;;;2.90;99.90;;;;;;2058363;28;20337;-68
2023/04/05 03:38:37;;;;;;;10.40;6.88;;;2.90;99.90;;;;;;2064888;28;20260;-69
2023/04/05 03:39:43;;;;;;;8.55;6.30;;;2.90;99.90;;;;;;2067331;28;20033;-68
2023/04/05 03:40:44;;;;;;;11.50;7.00;;;2.90;99.90;;;;;;2076649;28;20025;-69
2023/04/05 03:41:44;;;;;;;9.95;6.85;;;2.90;99.90;;;;;;2071865;28;20120;-69
2023/04/05 03:42:46;;;;;;;9.45;6.88;;;2.90;99.90;;;;;;2078429;28;20118;-69
2023/04/05 03:43:48;;;;;;;10.85;6.95;;;2.90;99.90;;;;;;2083604;28;20025;-69
2023/04/05 03:44:51;;;;;;;9.85;6.88;;;3.00;99.90;;;;;;2085533;28;20028;-69
2023/04/05 03:45:52;;;;;;;9.45;6.93;;;3.00;99.90;;;;;;2072293;28;20112;-70
2023/04/05 03:46:53;;;;;;;9.43;6.57;;;3.00;99.90;;;;;;2066772;28;20029;-69
2023/04/05 03:47:57;;;;;;;9.50;6.85;;;3.00;99.90;;;;;;2082821;28;20029;-68
2023/04/05 03:48:58;;;;;;;9.15;6.40;;;3.00;99.90;;;;;;2074543;28;20293;-69
2023/04/05 03:50:01;;;;;;;9.60;6.50;;;3.00;99.90;;;;;;2068611;28;20815;-69
2023/04/05 03:51:01;;;;;;;11.27;6.57;;;3.00;99.90;;;;;;2076431;28;20034;-68
2023/04/05 03:52:02;;;;;;;10.30;6.40;;;3.00;99.90;;;;;;2078544;28;20028;-68
2023/04/05 03:53:03;;;;;;;9.55;6.53;;;3.00;99.90;;;;;;2066807;28;20053;-70
2023/04/05 03:54:04;;;;;;;9.85;6.47;;;3.00;99.90;;;;;;2071412;28;20095;-69
2023/04/05 03:55:08;;;;;;;10.18;6.60;;;3.00;99.90;;;;;;2074438;28;20021;-69
2023/04/05 03:56:10;;;;;;;10.10;6.45;;;3.00;99.90;;;;;;2068362;28;20053;-69
2023/04/05 03:57:20;;;;;;;10.93;6.60;;;3.00;99.90;;;;;;2059441;28;20590;-68
2023/04/05 03:58:21;;;;;;;9.05;6.57;;;3.00;99.90;;;;;;2069425;28;20112;-68
2023/04/05 03:59:22;;;;;;;8.57;6.45;;;3.00;99.90;;;;;;2066341;28;20141;-69
2023/04/05 04:00:23;;;;;;;9.13;6.20;;;3.00;99.90;;;;;;2069545;28;20145;-68
2023/04/05 04:01:41;;;;;;;10.18;6.68;;;3.00;99.90;;;;;;2068741;28;20176;-69
2023/04/05 04:02:43;;;;;;;9.98;6.32;;;3.00;99.90;;;;;;2060522;28;20466;-69
2023/04/05 04:03:44;;;;;;;11.75;6.80;;;3.00;99.90;;;;;;2066346;28;20030;-69
2023/04/05 04:04:46;;;;;;;9.57;6.55;;;3.00;99.90;;;;;;2068281;28;20737;-68
2023/04/05 04:05:47;;;;;;;11.55;6.47;;;3.00;99.90;;;;;;2068315;28;20581;-69
2023/04/05 04:06:48;;;;;;;10.20;6.80;;;3.00;99.90;;;;;;2065649;28;20026;-69
2023/04/05 04:07:52;;;;;;;10.43;6.88;;;3.00;99.90;;;;;;2075140;28;20107;-70
2023/04/05 04:08:53;;;;;;;15.55;9.07;;;3.00;99.90;;;;;;2086890;28;20035;-70
2023/04/05 04:09:55;;;;;;;13.70;8.50;;;3.00;99.90;;;;;;2068818;28;20272;-69
2023/04/05 04:10:56;;;;;;;11.40;7.72;;;3.00;99.90;;;;;;2074798;28;20468;-69
2023/04/05 04:11:59;;;;;;;9.60;7.18;;;3.00;99.90;;;;;;2080458;28;20071;-69
2023/04/05 04:13:00;;;;;;;14.38;8.15;;;3.00;99.90;;;;;;2086934;28;20035;-71
2023/04/05 04:14:05;;;;;;;11.48;7.47;;;3.00;99.90;;;;;;2089293;28;20029;-70
2023/04/05 04:15:21;;;;;;;10.95;7.53;;;3.00;99.90;;;;;;2082651;28;20036;-70
2023/04/05 04:16:35;;;;;;;12.90;7.53;;;3.00;99.90;;;;;;2072272;28;20045;-69
2023/04/05 04:17:52;;;;;;;11.40;7.57;;;2.90;99.90;;;;;;2084784;28;20021;-69
2023/04/05 04:19:11;;;;;;;10.73;7.38;;;3.00;99.90;;;;;;2086875;28;20040;-70
2023/04/05 04:20:12;;;;;;;10.90;7.35;;;3.00;99.90;;;;;;2083207;28;20416;-70
2023/04/05 04:21:26;;;;;;;14.70;7.63;;;3.00;99.90;;;;;;2088015;28;20039;-70
2023/04/05 04:22:37;;;;;;;12.02;7.22;;;2.90;99.90;;;;;;2079073;28;20061;-71
2023/04/05 04:23:56;;;;;;;10.57;7.00;;;2.90;99.90;;;;;;2084949;28;20420;-69
2023/04/05 04:25:17;;;;;;;11.18;7.13;;;2.90;99.90;;;;;;2083453;28;20029;-70
2023/04/05 04:26:56;;;;;;;11.40;7.35;;;2.90;99.90;;;;;;2069043;28;20077;-70
2023/04/05 04:28:18;;;;;;;12.73;6.88;;;2.90;99.90;;;;;;2057359;28;20451;-70
2023/04/05 04:29:46;;;;;;;11.93;7.45;;;2.80;99.90;;;;;;2063955;28;20516;-70
2023/04/05 04:31:12;;;;;;;10.48;7.03;;;2.80;99.90;;;;;;2049898;28;20398;-70
2023/04/05 04:32:54;;;;;;;10.57;7.43;;;2.80;99.90;;;;;;2079129;28;20040;-71
2023/04/05 04:34:05;;;;;;;13.02;7.50;;;2.80;99.90;;;;;;2082347;28;20036;-70
2023/04/05 04:35:24;;;;;;;11.95;7.28;;;2.80;99.90;;;;;;2078313;28;20041;-69
2023/04/05 04:36:33;;;;;;;10.73;7.35;;;2.80;99.90;;;;;;2084902;28;20484;-70
2023/04/05 04:38:07;;;;;;;11.07;7.20;;;2.80;99.90;;;;;;2082817;28;20024;-71
2023/04/05 04:39:15;;;;;;;12.05;7.82;;;2.80;99.90;;;;;;2075556;28;20030;-72
2023/04/05 04:40:39;;;;;;;12.90;7.68;;;2.70;99.90;;;;;;2081026;28;20099;-71
2023/04/05 04:41:56;;;;;;;11.40;7.10;;;2.80;99.90;;;;;;2087129;28;20043;-73
2023/04/05 04:43:42;;;;;;;11.80;7.30;;;2.80;99.90;;;;;;2060243;28;20551;-73
2023/04/05 04:45:01;;;;;;;11.52;7.43;;;2.80;99.90;;;;;;2075813;28;20064;-69
2023/04/05 04:46:17;;;;;;;12.48;7.90;;;2.70;99.90;;;;;;2075027;28;20021;-71
2023/04/05 04:47:53;;;;;;;11.38;7.90;;;2.70;99.90;;;;;;2074640;28;20115;-70
2023/04/05 04:49:16;;;;;;;10.82;7.20;;;2.70;99.90;;;;;;2083088;28;20048;-70
2023/04/05 04:50:20;;;;;;;11.43;7.47;;;2.70;99.90;;;;;;2084530;28;20055;-69
2023/04/05 04:51:21;;;;;;;11.30;7.10;;;2.70;99.90;;;;;;2082551;28;20157;-72
2023/04/05 04:52:22;;;;;;;11.05;7.25;;;2.70;99.90;;;;;;2085678;28;20043;-71
2023/04/05 04:53:22;;;;;;;10.98;7.57;;;2.70;99.90;;;;;;2087384;28;20033;-71
2023/04/05 04:54:23;;;;;;;12.50;7.28;;;2.70;99.90;;;;;;2087334;28;20025;-71
2023/04/05 04:55:25;;;;;;;12.60;7.60;;;2.70;99.90;;;;;;2083058;28;20025;-71
2023/04/05 04:56:26;;;;;;;10.95;7.43;;;2.70;99.90;;;;;;2082211;28;20577;-71
2023/04/05 04:57:29;;;;;;;11.93;7.95;;;2.70;99.90;;;;;;2075171;28;20026;-71
2023/04/05 04:58:30;;;;;;;12.32;7.72;;;2.60;99.90;;;;;;2077267;28;20025;-70
2023/04/05 04:59:38;;;;;;;14.25;8.43;;;2.70;99.90;;;;;;2094378;28;20027;-69
2023/04/05 05:00:42;;;;;;;14.88;8.80;;;2.70;99.90;;;;;;2083317;28;20029;-70
2023/04/05 05:01:46;;;;;;;13.25;8.25;;;2.60;99.90;;;;;;2082541;28;20029;-70
2023/04/05 05:02:47;;;;;;;13.05;8.55;;;2.60;99.90;;;;;;2082723;28;20032;-70
2023/04/05 05:03:50;;;;;;;12.68;8.05;;;2.70;99.90;;;;;;2084107;28;20112;-70
2023/04/05 05:04:56;;;;;;;14.15;8.23;;;2.70;99.90;;;;;;2076726;28;20119;-69
2023/04/05 05:05:58;;;;;;;13.02;7.82;;;2.70;99.90;;;;;;2077825;28;20025;-70
2023/04/05 05:07:03;;;;;;;14.85;9.02;;;2.80;99.90;;;;;;2075927;28;20030;-79
2023/04/05 05:08:06;;;;;;;13.02;8.52;;;2.90;99.90;;;;;;2073487;28;20034;-68
2023/04/05 05:09:07;;;;;;;15.45;8.55;;;3.10;99.90;;;;;;2082139;28;20029;-69
2023/04/05 05:10:15;;;;;;;14.02;8.98;;;3.30;99.90;;;;;;2082566;28;20486;-70
2023/04/05 05:11:15;;;;;;;14.20;8.95;;;3.50;99.90;;;;;;2081764;28;20037;-71
2023/04/05 05:12:16;;;;;;;14.25;8.43;;;3.70;99.90;;;;;;2082256;28;20112;-70
2023/04/05 05:13:16;;;;;;;15.55;9.30;;;4.00;99.90;;;;;;2084029;28;20031;-69
2023/04/05 05:14:17;;;;;;;13.95;8.55;;;4.10;99.90;;;;;;2073230;28;20045;-73
2023/04/05 05:15:18;;;;;;;16.40;9.13;;;4.30;99.90;;;;;;2073515;28;20113;-69
2023/04/05 05:16:20;;;;;;;16.70;9.10;;;4.50;99.90;;;;;;2073412;28;20021;-70
2023/04/05 05:17:22;;;;;;;12.55;8.50;;;4.60;99.90;;;;;;2073254;28;20043;-68
2023/04/05 05:18:22;;;;;;;17.90;9.10;;;4.70;99.90;;;;;;2091814;28;20527;-72
2023/04/05 05:19:23;;;;;;;13.48;9.02;;;4.90;99.90;;;;;;2086743;28;20885;-71
2023/04/05 05:20:27;;;;;;;14.90;9.25;;;5.10;99.90;;;;;;2082096;28;20041;-72
2023/04/05 05:21:28;;;;;;;14.55;8.98;;;5.20;99.90;;;;;;2069523;28;20132;-75
2023/04/05 05:22:35;;;;;;;15.45;8.90;;;5.40;99.90;;;;;;2077889;28;20033;-74
2023/04/05 05:23:36;;;;;;;15.13;9.45;;;5.50;99.90;;;;;;2083109;28;20151;-75
2023/04/05 05:24:37;;;;;;;16.00;8.55;;;5.60;99.90;;;;;;2086195;28;20024;-69
2023/04/05 05:25:38;;;;;;;16.13;8.98;;;5.70;99.90;;;;;;2073322;28;20116;-69
2023/04/05 05:26:38;;;;;;;16.20;9.32;;;5.90;99.90;;;;;;2082250;28;20040;-70
2023/04/05 05:27:40;;;;;;;20.77;10.48;;;5.80;99.90;;;;;;2087935;28;20043;-69
2023/04/05 05:28:40;;;;;;;16.92;9.98;;;5.80;99.90;;;;;;2078716;28;20110;-69
2023/04/05 05:29:41;;;;;;;19.10;10.48;;;5.70;99.90;;;;;;2086046;28;20070;-71
2023/04/05 05:30:41;;;;;;;18.60;9.95;;;5.60;99.90;;;;;;2081401;28;20101;-70
2023/04/05 05:31:42;;;;;;;20.38;10.32;;;5.30;99.90;;;;;;2084493;28;20056;-70
2023/04/05 05:32:43;;;;;;;17.10;10.20;;;5.20;99.90;;;;;;2081919;28;20032;-71
2023/04/05 05:33:48;;;;;;;19.48;10.77;;;5.00;99.90;;;;;;2086300;28;20024;-70
2023/04/05 05:34:49;;;;;;;17.55;10.75;;;4.80;99.90;;;;;;2081089;28;20032;-71
2023/04/05 05:35:50;;;;;;;19.13;10.88;;;4.70;99.90;;;;;;2082684;28;20116;-70
2023/04/05 05:36:52;;;;;;;18.90;10.32;;;4.50;99.90;;;;;;2084381;28;20028;-68
2023/04/05 05:37:52;;;;;;;16.33;9.85;;;4.40;99.90;;;;;;2086427;28;20056;-70